createdAt,value
2023-03-26T00:00:01.323Z,100720
2023-03-26T00:05:00.680Z,100710
2023-03-26T00:10:00.670Z,100720
2023-03-26T00:15:01.127Z,100710
2023-03-26T00:20:00.696Z,100710
2023-03-26T00:25:00.731Z,100700
2023-03-26T00:30:00.835Z,100700
2023-03-26T00:35:00.732Z,100690
2023-03-26T00:40:01.092Z,100680
2023-03-26T00:45:00.699Z,100680
2023-03-26T00:50:00.879Z,100670
2023-03-26T00:55:00.888Z,100670
2023-03-26T01:00:07.721Z,100670
2023-03-26T01:05:20.604Z,100660
2023-03-26T01:10:00.689Z,100650
2023-03-26T01:15:01.266Z,100640
2023-03-26T01:20:14.000Z,100630
2023-03-26T01:25:01.177Z,100630
2023-03-26T01:30:05.261Z,100630
2023-03-26T01:35:18.400Z,100630
2023-03-26T01:40:16.270Z,100620
2023-03-26T01:45:08.579Z,100610
2023-03-26T01:50:00.750Z,100600
2023-03-26T01:55:00.983Z,100590
2023-03-26T02:00:08.537Z,100580
2023-03-26T02:05:14.626Z,100580
2023-03-26T02:10:07.378Z,100580
2023-03-26T02:15:01.206Z,100570
2023-03-26T02:20:00.814Z,100570
2023-03-26T02:25:00.663Z,100560
2023-03-26T02:30:00.730Z,100550
2023-03-26T02:35:01.380Z,100550
2023-03-26T02:40:01.007Z,100550
2023-03-26T02:45:00.921Z,100540
2023-03-26T02:50:00.757Z,100540
2023-03-26T02:55:01.066Z,100540
2023-03-26T03:00:01.481Z,100530
2023-03-26T03:05:00.680Z,100520
2023-03-26T03:10:00.692Z,100510
2023-03-26T03:15:00.699Z,100510
2023-03-26T03:20:00.746Z,100510
2023-03-26T03:25:02.204Z,100510
2023-03-26T03:30:00.714Z,100490
2023-03-26T03:35:00.700Z,100480
2023-03-26T03:40:00.734Z,100480
2023-03-26T03:45:01.009Z,100480
2023-03-26T03:50:00.728Z,100480
2023-03-26T03:55:00.856Z,100470
2023-03-26T04:00:01.404Z,100460
2023-03-26T04:05:01.708Z,100460
2023-03-26T04:10:01.028Z,100450
2023-03-26T04:15:00.708Z,100450
2023-03-26T04:20:00.737Z,100440
2023-03-26T04:25:01.053Z,100440
2023-03-26T04:30:01.366Z,100430
2023-03-26T04:35:01.695Z,100420
2023-03-26T04:40:01.316Z,100410
2023-03-26T04:45:00.677Z,100400
2023-03-26T04:50:00.740Z,100390
2023-03-26T04:55:00.913Z,100380
2023-03-26T05:00:01.346Z,100380
2023-03-26T05:05:00.676Z,100370
2023-03-26T05:10:01.344Z,100360
2023-03-26T05:15:00.704Z,100360
2023-03-26T05:20:00.896Z,100360
2023-03-26T05:25:00.705Z,100350
2023-03-26T05:30:01.613Z,100340
2023-03-26T05:35:00.791Z,100340
2023-03-26T05:40:00.777Z,100320
2023-03-26T05:45:00.695Z,100310
2023-03-26T05:50:01.057Z,100310
2023-03-26T05:55:00.799Z,100310
2023-03-26T06:00:02.750Z,100310
2023-03-26T06:05:00.677Z,100300
2023-03-26T06:10:00.735Z,100290
2023-03-26T06:15:00.695Z,100280
2023-03-26T06:20:00.724Z,100270
2023-03-26T06:25:00.682Z,100270
2023-03-26T06:30:00.789Z,100270
2023-03-26T06:35:00.687Z,100260
2023-03-26T06:40:00.802Z,100270
2023-03-26T06:45:00.759Z,100270
2023-03-26T06:50:00.778Z,100270
2023-03-26T06:55:02.209Z,100270
2023-03-26T07:00:01.272Z,100270
2023-03-26T07:05:00.788Z,100260
2023-03-26T07:10:00.724Z,100260
2023-03-26T07:15:02.444Z,100260
2023-03-26T07:20:00.743Z,100260
2023-03-26T07:25:00.914Z,100250
2023-03-26T07:30:05.705Z,100260
2023-03-26T07:35:20.582Z,100250
2023-03-26T07:40:10.631Z,100250
2023-03-26T07:45:20.581Z,100250
2023-03-26T07:50:00.871Z,100250
2023-03-26T07:55:00.914Z,100250
2023-03-26T08:00:16.326Z,100240
2023-03-26T08:05:17.397Z,100230
2023-03-26T08:10:11.137Z,100240
2023-03-26T08:15:17.997Z,100240
2023-03-26T08:20:13.476Z,100240
2023-03-26T08:25:20.557Z,100240
2023-03-26T08:30:15.790Z,100240
2023-03-26T08:35:00.751Z,100240
2023-03-26T08:40:00.778Z,100230
2023-03-26T08:45:11.648Z,100230
2023-03-26T08:50:20.570Z,100230
2023-03-26T08:55:20.566Z,100230
2023-03-26T09:00:20.777Z,100230
2023-03-26T09:05:20.568Z,100230
2023-03-26T09:10:10.646Z,100220
2023-03-26T09:15:18.123Z,100220
2023-03-26T09:20:06.818Z,100220
2023-03-26T09:25:11.638Z,100220
2023-03-26T09:30:20.332Z,100220
2023-03-26T09:35:18.308Z,100220
2023-03-26T09:40:11.635Z,100220
2023-03-26T09:45:20.586Z,100220
2023-03-26T09:50:11.678Z,100230
2023-03-26T09:55:08.607Z,100230
2023-03-26T10:00:07.521Z,100230
2023-03-26T10:05:10.653Z,100230
2023-03-26T10:10:11.641Z,100230
2023-03-26T10:15:15.770Z,100230
2023-03-26T10:20:06.455Z,100230
2023-03-26T10:25:03.934Z,100240
2023-03-26T10:30:13.933Z,100250
2023-03-26T10:35:19.110Z,100250
2023-03-26T10:40:14.039Z,100240
2023-03-26T10:45:20.572Z,100250
2023-03-26T10:50:23.154Z,100260
2023-03-26T10:55:09.620Z,100250
2023-03-26T11:00:19.653Z,100260
2023-03-26T11:05:20.611Z,100260
2023-03-26T11:10:15.515Z,100260
2023-03-26T11:15:16.717Z,100260
2023-03-26T11:20:09.589Z,100270
2023-03-26T11:25:12.679Z,100270
2023-03-26T11:30:05.457Z,100280
2023-03-26T11:35:06.122Z,100280
2023-03-26T11:40:06.486Z,100280
2023-03-26T11:45:05.504Z,100280
2023-03-26T11:50:02.221Z,100280
2023-03-26T11:55:00.739Z,100290
2023-03-26T12:00:06.848Z,100290
2023-03-26T12:05:11.810Z,100300
2023-03-26T12:10:18.236Z,100300
2023-03-26T12:15:01.011Z,100300
2023-03-26T12:20:20.607Z,100310
2023-03-26T12:25:20.587Z,100310
2023-03-26T12:30:11.546Z,100310
2023-03-26T12:35:06.584Z,100330
2023-03-26T12:40:12.229Z,100330
2023-03-26T12:45:01.349Z,100330
2023-03-26T12:50:00.677Z,100340
2023-03-26T12:55:12.222Z,100350
2023-03-26T13:00:08.512Z,100360
2023-03-26T13:05:18.058Z,100360
2023-03-26T13:10:10.623Z,100360
2023-03-26T13:15:11.639Z,100370
2023-03-26T13:20:20.578Z,100370
2023-03-26T13:25:05.374Z,100370
2023-03-26T13:30:10.624Z,100380
2023-03-26T13:35:17.907Z,100380
2023-03-26T13:40:11.646Z,100380
2023-03-26T13:45:12.371Z,100390
2023-03-26T13:50:06.633Z,100390
2023-03-26T13:55:13.878Z,100400
2023-03-26T14:00:11.779Z,100410
2023-03-26T14:05:15.231Z,100410
2023-03-26T14:10:06.061Z,100410
2023-03-26T14:15:15.346Z,100420
2023-03-26T14:20:09.146Z,100420
2023-03-26T14:25:07.104Z,100430
2023-03-26T14:30:20.585Z,100430
2023-03-26T14:35:20.664Z,100430
2023-03-26T14:40:13.928Z,100440
2023-03-26T14:45:20.574Z,100440
2023-03-26T14:50:13.951Z,100450
2023-03-26T14:55:04.929Z,100470
2023-03-26T15:00:11.146Z,100480
2023-03-26T15:05:20.575Z,100480
2023-03-26T15:10:13.085Z,100490
2023-03-26T15:15:10.635Z,100500
2023-03-26T15:20:18.159Z,100510
2023-03-26T15:25:13.909Z,100510
2023-03-26T15:30:20.585Z,100520
2023-03-26T15:35:10.639Z,100530
2023-03-26T15:40:10.647Z,100530
2023-03-26T15:45:10.677Z,100540
2023-03-26T15:50:10.638Z,100560
2023-03-26T15:55:20.584Z,100580
2023-03-26T16:00:17.425Z,100590
2023-03-26T16:05:18.173Z,100600
2023-03-26T16:10:13.870Z,100610
2023-03-26T16:15:18.280Z,100620
2023-03-26T16:20:17.999Z,100630
2023-03-26T16:25:27.170Z,100630
2023-03-26T16:30:10.649Z,100650
2023-03-26T16:35:12.257Z,100660
2023-03-26T16:40:18.179Z,100680
2023-03-26T16:45:12.248Z,100680
2023-03-26T16:50:09.135Z,100690
2023-03-26T16:55:20.616Z,100700
2023-03-26T17:00:10.884Z,100720
2023-03-26T17:05:17.433Z,100730
2023-03-26T17:10:20.563Z,100750
2023-03-26T17:15:20.573Z,100760
2023-03-26T17:20:16.632Z,100760
2023-03-26T17:25:18.119Z,100780
2023-03-26T17:30:20.602Z,100790
2023-03-26T17:35:01.167Z,100810
2023-03-26T17:40:00.676Z,100820
2023-03-26T17:45:06.426Z,100820
2023-03-26T17:50:09.579Z,100840
2023-03-26T17:55:02.054Z,100850
2023-03-26T18:00:02.889Z,100850
2023-03-26T18:05:03.183Z,100870
2023-03-26T18:10:11.251Z,100890
2023-03-26T18:15:10.672Z,100900
2023-03-26T18:20:04.307Z,100900
2023-03-26T18:25:02.792Z,100920
2023-03-26T18:30:12.085Z,100940
2023-03-26T18:35:13.324Z,100940
2023-03-26T18:40:08.435Z,100950
2023-03-26T18:45:07.434Z,100960
2023-03-26T18:50:01.233Z,100980
2023-03-26T18:55:02.081Z,100990
2023-03-26T19:00:17.620Z,101010
2023-03-26T19:05:01.582Z,101020
2023-03-26T19:10:01.081Z,101030
2023-03-26T19:15:05.074Z,101040
2023-03-26T19:20:01.082Z,101030
2023-03-26T19:25:01.549Z,101040
2023-03-26T19:30:00.934Z,101050
2023-03-26T19:35:00.882Z,101070
2023-03-26T19:40:13.317Z,101080
2023-03-26T19:45:03.831Z,101080
2023-03-26T19:50:20.399Z,101100
2023-03-26T19:55:09.360Z,101110
2023-03-26T20:00:03.831Z,101120
2023-03-26T20:05:00.681Z,101130
2023-03-26T20:10:01.796Z,101130
2023-03-26T20:15:00.710Z,101140
2023-03-26T20:20:00.711Z,101160
2023-03-26T20:25:00.682Z,101160
2023-03-26T20:30:00.690Z,101170
2023-03-26T20:35:00.688Z,101180
2023-03-26T20:40:00.732Z,101190
2023-03-26T20:45:01.244Z,101200
2023-03-26T20:50:00.931Z,101200
2023-03-26T20:55:00.674Z,101220
2023-03-26T21:00:01.328Z,101220
2023-03-26T21:05:00.671Z,101230
2023-03-26T21:10:00.888Z,101240
2023-03-26T21:15:01.746Z,101240
2023-03-26T21:20:00.768Z,101250
2023-03-26T21:25:13.911Z,101260
2023-03-26T21:30:01.051Z,101270
2023-03-26T21:35:01.116Z,101270
2023-03-26T21:40:00.816Z,101280
2023-03-26T21:45:00.871Z,101300
2023-03-26T21:50:01.294Z,101310
2023-03-26T21:55:00.990Z,101320
2023-03-26T22:00:07.129Z,101320
2023-03-26T22:05:11.346Z,101330
2023-03-26T22:10:00.741Z,101350
2023-03-26T22:15:00.681Z,101350
2023-03-26T22:20:00.700Z,101360
2023-03-26T22:25:00.698Z,101370
2023-03-26T22:30:00.745Z,101370
2023-03-26T22:35:00.945Z,101370
2023-03-26T22:40:00.690Z,101390
2023-03-26T22:45:00.841Z,101380
2023-03-26T22:50:03.157Z,101390
2023-03-26T22:55:00.743Z,101410
2023-03-26T23:00:01.177Z,101420
2023-03-26T23:05:00.712Z,101430
2023-03-26T23:10:00.671Z,101440
2023-03-26T23:15:00.695Z,101450
2023-03-26T23:20:03.542Z,101450
2023-03-26T23:25:00.800Z,101460
2023-03-26T23:30:00.840Z,101470
2023-03-26T23:35:00.676Z,101480
2023-03-26T23:40:00.977Z,101480
2023-03-26T23:45:00.779Z,101490
2023-03-26T23:50:01.642Z,101510
2023-03-26T23:55:00.715Z,101520
